createdAt,value
2019-03-30T00:01:05.101Z,100017.33
2019-03-30T00:03:35.830Z,100014.98
2019-03-30T00:06:06.576Z,100013.59
2019-03-30T00:08:37.347Z,100010.05
2019-03-30T00:11:08.122Z,100008.05
2019-03-30T00:13:39.347Z,100005.28
2019-03-30T00:16:10.088Z,100005.86
2019-03-30T00:18:41.492Z,99998.98
2019-03-30T00:21:12.488Z,99996.67
2019-03-30T00:23:43.250Z,99992.08
2019-03-30T00:26:13.988Z,99987.69
2019-03-30T00:28:44.759Z,99987.83
2019-03-30T00:31:15.538Z,99983.19
2019-03-30T00:33:46.322Z,99979.91
2019-03-30T00:36:17.058Z,99981.68
2019-03-30T00:38:47.835Z,99983.27
2019-03-30T00:41:18.629Z,99974.17
2019-03-30T00:43:49.359Z,99971.48
2019-03-30T00:46:20.129Z,99971.80
2019-03-30T00:48:50.924Z,99975.30
2019-03-30T00:51:21.707Z,99984.23
2019-03-30T00:53:52.454Z,99985.73
2019-03-30T00:56:23.199Z,99978.05
2019-03-30T00:58:53.950Z,99980.44
2019-03-30T01:01:24.721Z,99978.58
2019-03-30T01:03:55.470Z,99974.58
2019-03-30T01:06:26.266Z,99968.60
2019-03-30T01:08:57.036Z,99968.05
2019-03-30T01:11:27.847Z,99961.14
2019-03-30T01:13:59.395Z,99960.36
2019-03-30T01:16:30.098Z,99962.69
2019-03-30T01:19:00.887Z,99966.77
2019-03-30T01:21:31.692Z,99965.19
2019-03-30T01:24:02.703Z,99960.97
2019-03-30T01:26:33.450Z,99959.92
2019-03-30T01:29:04.339Z,99959.28
2019-03-30T01:31:35.151Z,99962.78
2019-03-30T01:34:05.922Z,99961.10
2019-03-30T01:36:36.703Z,99952.99
2019-03-30T01:39:08.391Z,99948.37
2019-03-30T01:41:39.207Z,99944.03
2019-03-30T01:44:11.010Z,99945.34
2019-03-30T01:46:41.730Z,99945.22
2019-03-30T01:49:12.497Z,99937.19
2019-03-30T01:51:43.216Z,99934.06
2019-03-30T01:54:14.130Z,99939.55
2019-03-30T01:56:44.866Z,99937.32
2019-03-30T01:59:15.631Z,99934.37
2019-03-30T02:01:46.347Z,99934.80
2019-03-30T02:04:17.230Z,99932.72
2019-03-30T02:06:47.969Z,99933.29
2019-03-30T02:09:18.774Z,99928.90
2019-03-30T02:11:49.503Z,99928.90
2019-03-30T02:14:20.758Z,99933.44
2019-03-30T02:16:51.864Z,99922.84
2019-03-30T02:19:22.609Z,99924.91
2019-03-30T02:21:53.340Z,99913.44
2019-03-30T02:24:24.380Z,99920.33
2019-03-30T02:26:55.106Z,99916.83
2019-03-30T02:29:25.859Z,99920.72
2019-03-30T02:31:56.666Z,99915.75
2019-03-30T02:34:27.483Z,99917.82
2019-03-30T02:36:58.227Z,99916.20
2019-03-30T02:39:29.016Z,99920.48
2019-03-30T02:41:59.814Z,99913.39
2019-03-30T02:44:30.613Z,99908.17
2019-03-30T02:47:01.389Z,99915.69
2019-03-30T02:49:32.238Z,99909.80
2019-03-30T02:52:03.045Z,99917.25
2019-03-30T02:54:34.028Z,99910.42
2019-03-30T02:57:04.761Z,99918.78
2019-03-30T02:59:35.508Z,99914.95
2019-03-30T03:02:06.246Z,99912.31
2019-03-30T03:04:37.080Z,99909.56
2019-03-30T03:07:07.838Z,99913.24
2019-03-30T03:09:38.726Z,99911.44
2019-03-30T03:12:09.431Z,99908.69
2019-03-30T03:14:40.591Z,99913.00
2019-03-30T03:17:11.296Z,99904.86
2019-03-30T03:19:42.031Z,99907.16
2019-03-30T03:22:12.780Z,99903.27
2019-03-30T03:24:43.895Z,99901.20
2019-03-30T03:27:14.703Z,99898.27
2019-03-30T03:29:45.487Z,99900.91
2019-03-30T03:32:16.269Z,99899.02
2019-03-30T03:34:47.089Z,99893.69
2019-03-30T03:37:17.806Z,99896.00
2019-03-30T03:39:49.784Z,99892.31
2019-03-30T03:42:20.526Z,99889.36
2019-03-30T03:44:51.345Z,99888.48
2019-03-30T03:47:22.087Z,99888.72
2019-03-30T03:49:52.830Z,99889.74
2019-03-30T03:52:23.532Z,99885.22
2019-03-30T03:54:55.717Z,99890.16
2019-03-30T03:57:28.678Z,99888.28
2019-03-30T04:00:01.796Z,99892.92
2019-03-30T04:02:37.402Z,99884.09
2019-03-30T04:05:09.892Z,99888.59
2019-03-30T04:07:43.525Z,99885.05
2019-03-30T04:10:15.436Z,99884.05
2019-03-30T04:12:47.636Z,99886.17
2019-03-30T04:15:28.578Z,99887.22
2019-03-30T04:17:59.309Z,99880.38
2019-03-30T04:20:30.087Z,99881.90
2019-03-30T04:23:00.835Z,99878.26
2019-03-30T04:25:31.785Z,99879.03
2019-03-30T04:28:03.606Z,99869.09
2019-03-30T04:30:34.407Z,99870.91
2019-03-30T04:33:05.325Z,99863.66
2019-03-30T04:35:37.203Z,99859.41
2019-03-30T04:38:07.968Z,99858.47
2019-03-30T04:40:38.903Z,99853.81
2019-03-30T04:43:09.638Z,99853.31
2019-03-30T04:45:40.540Z,99858.13
2019-03-30T04:48:11.539Z,99857.72
2019-03-30T04:50:42.435Z,99856.33
2019-03-30T04:53:13.143Z,99861.66
2019-03-30T04:55:44.216Z,99857.75
2019-03-30T04:58:14.971Z,99857.72
2019-03-30T05:00:45.719Z,99857.75
2019-03-30T05:03:16.453Z,99857.72
2019-03-30T05:05:47.275Z,99858.97
2019-03-30T05:08:17.983Z,99856.23
2019-03-30T05:10:48.966Z,99855.09
2019-03-30T05:13:19.742Z,99855.83
2019-03-30T05:15:51.013Z,99848.48
2019-03-30T05:18:21.779Z,99853.53
2019-03-30T05:20:52.491Z,99853.12
2019-03-30T05:23:23.221Z,99850.03
2019-03-30T05:25:54.092Z,99851.41
2019-03-30T05:28:24.827Z,99853.25
2019-03-30T05:30:55.541Z,99848.69
2019-03-30T05:33:26.249Z,99850.39
2019-03-30T05:35:57.068Z,99849.95
2019-03-30T05:38:27.812Z,99847.91
2019-03-30T05:40:58.562Z,99851.55
2019-03-30T05:43:29.307Z,99849.81
2019-03-30T05:46:00.158Z,99853.38
2019-03-30T05:48:31.064Z,99847.09
2019-03-30T05:51:01.823Z,99847.15
2019-03-30T05:53:33.675Z,99838.34
2019-03-30T05:56:04.707Z,99848.50
2019-03-30T05:58:35.449Z,99853.02
2019-03-30T06:01:06.260Z,99848.89
2019-03-30T06:03:37.088Z,99847.02
2019-03-30T06:06:07.937Z,99846.80
2019-03-30T06:08:38.700Z,99844.86
2019-03-30T06:11:09.495Z,99840.11
2019-03-30T06:13:40.227Z,99837.86
2019-03-30T06:16:11.673Z,99836.47
2019-03-30T06:18:42.421Z,99837.76
2019-03-30T06:21:14.291Z,99834.07
2019-03-30T06:23:48.407Z,99821.39
2019-03-30T06:26:17.600Z,99820.56
2019-03-30T06:28:48.363Z,99819.78
2019-03-30T06:31:19.154Z,99824.03
2019-03-30T06:33:49.880Z,99820.84
2019-03-30T06:36:20.717Z,99820.31
2019-03-30T06:38:51.946Z,99827.73
2019-03-30T06:41:22.768Z,99812.86
2019-03-30T06:43:53.497Z,99813.95
2019-03-30T06:46:24.747Z,99809.44
2019-03-30T06:48:57.631Z,99807.05
2019-03-30T06:52:13.438Z,99800.41
2019-03-30T06:54:45.819Z,99794.56
2019-03-30T06:57:16.737Z,99804.86
2019-03-30T06:59:47.481Z,99802.87
2019-03-30T07:02:18.443Z,99803.47
2019-03-30T07:04:49.519Z,99808.74
2019-03-30T07:07:21.081Z,99804.71
2019-03-30T07:09:53.445Z,99806.61
2019-03-30T07:12:25.759Z,99806.03
2019-03-30T07:14:59.301Z,99800.34
2019-03-30T07:17:31.855Z,99795.58
2019-03-30T07:20:04.144Z,99804.63
2019-03-30T07:22:34.911Z,99798.20
2019-03-30T07:25:05.932Z,99797.98
2019-03-30T07:27:37.914Z,99801.36
2019-03-30T07:30:09.124Z,99798.86
2019-03-30T07:32:39.987Z,99795.84
2019-03-30T07:35:13.063Z,99796.13
2019-03-30T07:37:43.971Z,99797.61
2019-03-30T07:40:15.059Z,99793.16
2019-03-30T07:42:46.026Z,99793.54
2019-03-30T07:45:17.101Z,99787.27
2019-03-30T07:47:48.092Z,99787.85
2019-03-30T07:50:19.410Z,99786.53
2019-03-30T07:52:50.276Z,99784.13
2019-03-30T07:55:21.139Z,99778.63
2019-03-30T07:57:52.146Z,99770.28
2019-03-30T08:00:22.996Z,99780.11
2019-03-30T08:02:54.281Z,99784.84
2019-03-30T08:05:25.074Z,99774.45
2019-03-30T08:07:55.955Z,99777.05
2019-03-30T08:10:27.341Z,99782.50
2019-03-30T08:12:58.421Z,99777.21
2019-03-30T08:15:29.294Z,99766.64
2019-03-30T08:18:00.558Z,99765.88
2019-03-30T08:20:31.502Z,99759.27
2019-03-30T08:23:02.608Z,99769.70
2019-03-30T08:25:33.369Z,99760.50
2019-03-30T08:28:04.418Z,99767.16
2019-03-30T08:30:36.535Z,99764.73
2019-03-30T08:33:07.323Z,99762.04
2019-03-30T08:35:38.168Z,99758.07
2019-03-30T08:38:09.074Z,99754.83
2019-03-30T08:40:39.868Z,99753.41
2019-03-30T08:43:10.886Z,99765.98
2019-03-30T08:45:41.663Z,99759.46
2019-03-30T08:48:12.543Z,99757.71
2019-03-30T08:50:43.381Z,99749.71
2019-03-30T08:53:14.208Z,99755.71
2019-03-30T08:55:45.056Z,99756.84
2019-03-30T08:58:16.646Z,99749.61
2019-03-30T09:00:53.687Z,99753.44
2019-03-30T09:03:41.943Z,99740.08
2019-03-30T09:06:12.743Z,99750.27
2019-03-30T09:08:43.660Z,99747.28
2019-03-30T09:11:14.524Z,99733.32
2019-03-30T09:13:46.526Z,99732.84
2019-03-30T09:16:17.331Z,99722.08
2019-03-30T09:18:48.538Z,99739.38
2019-03-30T09:21:19.362Z,99724.77
2019-03-30T09:23:50.190Z,99721.63
2019-03-30T09:26:21.154Z,99723.69
2019-03-30T09:28:53.952Z,99728.55
2019-03-30T09:31:31.907Z,99716.75
2019-03-30T09:34:12.768Z,99720.09
2019-03-30T09:36:45.326Z,99716.55
2019-03-30T09:39:16.258Z,99712.02
2019-03-30T09:41:47.093Z,99703.31
2019-03-30T09:44:17.977Z,99714.81
2019-03-30T09:46:48.768Z,99708.46
2019-03-30T09:49:19.613Z,99698.05
2019-03-30T09:51:50.448Z,99694.85
2019-03-30T09:54:26.313Z,99690.27
2019-03-30T09:56:58.824Z,99700.88
2019-03-30T09:59:29.816Z,99686.44
2019-03-30T10:02:00.670Z,99689.92
2019-03-30T10:04:31.472Z,99689.31
2019-03-30T10:07:02.234Z,99673.30
2019-03-30T10:09:33.044Z,99674.34
2019-03-30T10:12:04.100Z,99672.86
2019-03-30T10:14:34.938Z,99677.70
2019-03-30T10:17:05.772Z,99666.37
2019-03-30T10:19:36.679Z,99666.35
2019-03-30T10:22:08.699Z,99669.94
2019-03-30T10:24:39.586Z,99670.50
2019-03-30T10:27:10.352Z,99651.13
2019-03-30T10:29:41.469Z,99642.41
2019-03-30T10:32:12.328Z,99643.75
2019-03-30T10:34:43.131Z,99639.49
2019-03-30T10:37:14.051Z,99640.98
2019-03-30T10:39:45.101Z,99642.37
2019-03-30T10:42:15.951Z,99628.39
2019-03-30T10:44:46.869Z,99623.43
2019-03-30T10:47:17.638Z,99620.77
2019-03-30T10:49:48.596Z,99611.95
2019-03-30T10:52:19.647Z,99618.63
2019-03-30T10:54:53.046Z,99615.56
2019-03-30T10:57:23.419Z,99617.09
2019-03-30T10:59:54.569Z,99607.63
2019-03-30T11:02:25.445Z,99603.39
2019-03-30T11:04:56.357Z,99607.83
2019-03-30T11:07:27.165Z,99603.88
2019-03-30T11:09:58.385Z,99596.97
2019-03-30T11:12:29.244Z,99592.78
2019-03-30T11:15:00.375Z,99597.45
2019-03-30T11:17:31.231Z,99599.92
2019-03-30T11:20:02.447Z,99590.58
2019-03-30T11:22:34.581Z,99585.20
2019-03-30T11:25:08.467Z,99587.33
2019-03-30T11:27:38.201Z,99587.64
2019-03-30T11:30:09.317Z,99583.96
2019-03-30T11:32:40.313Z,99576.66
2019-03-30T11:35:11.198Z,99579.98
2019-03-30T11:37:42.023Z,99573.20
2019-03-30T11:40:12.960Z,99568.39
2019-03-30T11:42:43.754Z,99578.61
2019-03-30T11:45:15.023Z,99565.64
2019-03-30T11:47:45.811Z,99560.40
2019-03-30T11:50:16.675Z,99547.80
2019-03-30T11:52:47.458Z,99542.19
2019-03-30T11:55:22.121Z,99549.45
2019-03-30T11:57:50.851Z,99545.84
2019-03-30T12:00:21.850Z,99541.05
2019-03-30T12:02:52.690Z,99538.44
2019-03-30T12:05:23.559Z,99536.08
2019-03-30T12:07:54.382Z,99524.44
2019-03-30T12:10:25.199Z,99521.38
2019-03-30T12:12:56.053Z,99521.97
2019-03-30T12:15:28.177Z,99523.41
2019-03-30T12:17:59.087Z,99519.47
2019-03-30T12:20:30.130Z,99516.58
2019-03-30T12:23:00.917Z,99510.48
2019-03-30T12:25:35.778Z,99504.45
2019-03-30T12:28:04.344Z,99499.70
2019-03-30T12:30:35.229Z,99503.41
2019-03-30T12:33:06.007Z,99500.14
2019-03-30T12:35:36.873Z,99492.02
2019-03-30T12:38:07.774Z,99485.88
2019-03-30T12:40:38.584Z,99488.84
2019-03-30T12:43:09.393Z,99483.73
2019-03-30T12:45:41.586Z,99474.39
2019-03-30T12:48:12.348Z,99471.70
2019-03-30T12:50:43.194Z,99471.80
2019-03-30T12:53:14.031Z,99473.96
2019-03-30T12:55:49.434Z,99469.27
2019-03-30T12:58:17.509Z,99461.33
2019-03-30T13:00:48.543Z,99465.08
2019-03-30T13:03:19.455Z,99461.36
2019-03-30T13:05:50.254Z,99448.44
2019-03-30T13:08:21.255Z,99453.13
2019-03-30T13:10:52.122Z,99448.67
2019-03-30T13:13:22.981Z,99446.48
2019-03-30T13:15:53.947Z,99445.28
2019-03-30T13:18:24.843Z,99439.03
2019-03-30T13:20:56.221Z,99425.34
2019-03-30T13:23:27.030Z,99425.17
2019-03-30T13:26:03.882Z,99420.02
2019-03-30T13:28:30.510Z,99423.27
2019-03-30T13:31:01.578Z,99425.17
2019-03-30T13:33:33.880Z,99417.06
2019-03-30T13:36:05.397Z,99414.64
2019-03-30T13:38:36.227Z,99420.91
2019-03-30T13:41:07.022Z,99421.34
2019-03-30T13:43:37.795Z,99416.84
2019-03-30T13:46:08.716Z,99417.23
2019-03-30T13:48:40.564Z,99405.70
2019-03-30T13:51:11.358Z,99416.97
2019-03-30T13:53:42.083Z,99409.27
2019-03-30T13:56:17.298Z,99408.55
2019-03-30T13:58:45.335Z,99404.06
2019-03-30T14:01:16.311Z,99395.80
2019-03-30T14:03:47.070Z,99393.01
2019-03-30T14:06:17.948Z,99388.80
2019-03-30T14:08:48.787Z,99383.45
2019-03-30T14:11:19.590Z,99385.69
2019-03-30T14:13:50.326Z,99380.45
2019-03-30T14:16:22.199Z,99376.59
2019-03-30T14:18:53.013Z,99371.11
2019-03-30T14:21:24.022Z,99371.13
2019-03-30T14:23:54.759Z,99366.88
2019-03-30T14:26:31.632Z,99370.89
2019-03-30T14:28:58.048Z,99363.29
2019-03-30T14:31:28.914Z,99360.83
2019-03-30T14:34:02.206Z,99348.84
2019-03-30T14:36:32.979Z,99344.77
2019-03-30T14:39:05.759Z,99340.61
2019-03-30T14:41:36.774Z,99340.05
2019-03-30T14:44:07.509Z,99340.37
2019-03-30T14:46:39.392Z,99324.36
2019-03-30T14:49:10.240Z,99332.00
2019-03-30T14:51:40.999Z,99326.36
2019-03-30T14:54:11.765Z,99326.71
2019-03-30T14:56:45.818Z,99327.52
2019-03-30T14:59:15.202Z,99321.52
2019-03-30T15:01:46.031Z,99315.16
2019-03-30T15:04:16.761Z,99319.91
2019-03-30T15:06:47.523Z,99314.67
2019-03-30T15:09:18.320Z,99305.92
2019-03-30T15:11:49.103Z,99308.05
2019-03-30T15:14:19.840Z,99305.34
2019-03-30T15:16:50.662Z,99300.47
2019-03-30T15:19:21.499Z,99303.34
2019-03-30T15:21:52.734Z,99295.26
2019-03-30T15:24:23.508Z,99294.28
2019-03-30T15:27:00.079Z,99295.16
2019-03-30T15:29:26.868Z,99290.14
2019-03-30T15:31:57.808Z,99292.98
2019-03-30T15:34:47.439Z,99289.42
2019-03-30T15:37:21.222Z,99289.66
2019-03-30T15:39:52.096Z,99284.73
2019-03-30T15:42:22.873Z,99288.84
2019-03-30T15:44:53.651Z,99285.13
2019-03-30T15:47:24.957Z,99277.30
2019-03-30T15:50:04.734Z,99277.16
2019-03-30T15:52:46.721Z,99275.28
2019-03-30T15:55:29.657Z,99272.86
2019-03-30T15:58:03.157Z,99266.63
2019-03-30T16:00:34.226Z,99273.48
2019-03-30T16:03:05.106Z,99270.47
2019-03-30T16:05:36.930Z,99262.05
2019-03-30T16:08:07.841Z,99265.64
2019-03-30T16:10:40.757Z,99262.81
2019-03-30T16:16:12.360Z,99261.83
2019-03-30T16:18:52.014Z,99268.55
2019-03-30T16:21:28.018Z,99265.97
2019-03-30T16:24:32.703Z,99266.73
2019-03-30T16:27:28.232Z,99261.37
2019-03-30T16:29:48.643Z,99260.34
2019-03-30T16:33:07.394Z,99266.09
2019-03-30T16:35:52.723Z,99260.57
2019-03-30T16:38:31.632Z,99260.91
2019-03-30T16:41:10.100Z,99260.45
2019-03-30T16:43:46.947Z,99261.70
2019-03-30T16:46:20.736Z,99255.31
2019-03-30T16:48:51.521Z,99257.09
2019-03-30T16:51:22.492Z,99251.26
2019-03-30T16:53:53.258Z,99254.97
2019-03-30T16:56:24.108Z,99265.09
2019-03-30T16:58:55.011Z,99251.64
2019-03-30T17:01:25.789Z,99260.61
2019-03-30T17:03:56.591Z,99258.93
2019-03-30T17:06:27.545Z,99252.75
2019-03-30T17:08:58.258Z,99255.42
2019-03-30T17:11:29.048Z,99244.26
2019-03-30T17:13:59.849Z,99250.68
2019-03-30T17:16:30.608Z,99249.06
2019-03-30T17:19:01.363Z,99254.77
2019-03-30T17:21:32.174Z,99257.77
2019-03-30T17:24:04.472Z,99252.85
2019-03-30T17:26:35.301Z,99252.45
2019-03-30T17:29:06.043Z,99253.02
2019-03-30T17:31:36.868Z,99257.31
2019-03-30T17:34:07.724Z,99256.69
2019-03-30T17:36:38.828Z,99261.07
2019-03-30T17:39:13.613Z,99255.67
2019-03-30T17:41:44.490Z,99252.22
2019-03-30T17:44:15.308Z,99260.34
2019-03-30T17:46:46.092Z,99261.98
2019-03-30T17:49:16.851Z,99266.58
2019-03-30T17:51:47.874Z,99260.77
2019-03-30T17:54:18.693Z,99266.63
2019-03-30T17:56:49.484Z,99267.38
2019-03-30T17:59:23.535Z,99268.72
2019-03-30T18:01:52.722Z,99266.44
2019-03-30T18:04:23.588Z,99272.59
2019-03-30T18:06:54.494Z,99273.13
2019-03-30T18:09:25.450Z,99274.19
2019-03-30T18:11:56.230Z,99276.73
2019-03-30T18:14:27.448Z,99281.21
2019-03-30T18:16:58.306Z,99284.13
2019-03-30T18:19:29.055Z,99284.44
2019-03-30T18:22:04.029Z,99282.73
2019-03-30T18:24:36.412Z,99289.59
2019-03-30T18:27:07.306Z,99284.51
2019-03-30T18:29:38.091Z,99284.52
2019-03-30T18:32:09.030Z,99284.37
2019-03-30T18:34:41.130Z,99291.04
2019-03-30T18:37:12.395Z,99292.36
2019-03-30T18:39:43.190Z,99295.04
2019-03-30T18:42:13.935Z,99297.59
2019-03-30T18:44:45.981Z,99297.21
2019-03-30T18:47:16.739Z,99295.69
2019-03-30T18:49:48.563Z,99297.84
2019-03-30T18:52:20.033Z,99297.96
2019-03-30T18:54:53.150Z,99300.55
2019-03-30T18:57:24.065Z,99299.95
2019-03-30T18:59:54.845Z,99297.26
2019-03-30T19:02:25.710Z,99303.77
2019-03-30T19:04:56.447Z,99298.96
2019-03-30T19:07:27.434Z,99302.12
2019-03-30T19:09:58.187Z,99302.97
2019-03-30T19:12:28.994Z,99303.28
2019-03-30T19:14:59.829Z,99303.44
2019-03-30T19:17:30.689Z,99301.00
2019-03-30T19:20:01.513Z,99302.65
2019-03-30T19:22:32.387Z,99302.40
2019-03-30T19:25:03.525Z,99301.55
2019-03-30T19:27:34.398Z,99301.00
2019-03-30T19:30:05.531Z,99299.50
2019-03-30T19:32:36.280Z,99305.64
2019-03-30T19:35:07.194Z,99301.59
2019-03-30T19:37:38.051Z,99302.04
2019-03-30T19:40:08.947Z,99306.76
2019-03-30T19:42:39.703Z,99304.25
2019-03-30T19:45:10.578Z,99302.56
2019-03-30T19:47:41.403Z,99300.56
2019-03-30T19:50:12.361Z,99298.32
2019-03-30T19:52:43.273Z,99299.27
2019-03-30T19:55:14.313Z,99297.14
2019-03-30T19:57:45.219Z,99294.94
2019-03-30T20:00:17.386Z,99299.67
2019-03-30T20:02:48.221Z,99298.48
2019-03-30T20:05:19.085Z,99296.95
2019-03-30T20:07:50.032Z,99299.01
2019-03-30T20:10:20.881Z,99300.80
2019-03-30T20:12:51.721Z,99295.68
2019-03-30T20:15:22.524Z,99300.80
2019-03-30T20:17:53.555Z,99301.96
2019-03-30T20:20:24.336Z,99295.48
2019-03-30T20:22:55.210Z,99293.06
2019-03-30T20:25:27.152Z,99291.32
2019-03-30T20:27:58.532Z,99285.91
2019-03-30T20:30:31.268Z,99285.68
2019-03-30T20:33:02.635Z,99286.03
2019-03-30T20:35:35.451Z,99283.08
2019-03-30T20:38:06.815Z,99285.91
2019-03-30T20:40:40.208Z,99281.06
2019-03-30T20:43:18.220Z,99282.10
2019-03-30T20:45:49.484Z,99278.23
2019-03-30T20:48:29.457Z,99275.75
2019-03-30T20:51:00.779Z,99278.16
2019-03-30T20:53:32.653Z,99279.52
2019-03-30T20:56:04.732Z,99281.98
2019-03-30T20:58:35.611Z,99281.08
2019-03-30T21:01:06.918Z,99280.97
2019-03-30T21:03:37.782Z,99280.50
2019-03-30T21:06:08.546Z,99273.11
2019-03-30T21:08:39.681Z,99277.00
2019-03-30T21:11:10.501Z,99271.16
2019-03-30T21:13:41.345Z,99272.68
2019-03-30T21:16:12.209Z,99271.81
2019-03-30T21:18:43.006Z,99271.26
2019-03-30T21:21:14.029Z,99265.39
2019-03-30T21:23:45.093Z,99268.60
2019-03-30T21:26:16.381Z,99264.38
2019-03-30T21:28:47.171Z,99267.90
2019-03-30T21:31:17.915Z,99266.96
2019-03-30T21:33:48.903Z,99266.64
2019-03-30T21:36:19.689Z,99266.05
2019-03-30T21:38:50.550Z,99259.44
2019-03-30T21:41:21.313Z,99263.16
2019-03-30T21:43:52.173Z,99268.76
2019-03-30T21:46:23.054Z,99265.58
2019-03-30T21:48:54.317Z,99268.73
2019-03-30T21:51:25.088Z,99264.89
2019-03-30T21:53:56.168Z,99259.38
2019-03-30T21:56:26.985Z,99263.98
2019-03-30T21:58:58.347Z,99261.75
2019-03-30T22:01:29.080Z,99260.11
2019-03-30T22:03:59.952Z,99260.41
2019-03-30T22:06:30.863Z,99265.62
2019-03-30T22:09:01.971Z,99255.64
2019-03-30T22:11:34.182Z,99259.42
2019-03-30T22:14:05.331Z,99257.55
2019-03-30T22:16:36.063Z,99253.31
2019-03-30T22:19:06.866Z,99250.62
2019-03-30T22:21:38.701Z,99253.33
2019-03-30T22:24:09.644Z,99255.45
2019-03-30T22:26:40.819Z,99255.13
2019-03-30T22:29:12.575Z,99251.41
2019-03-30T22:31:43.426Z,99248.46
2019-03-30T22:34:14.316Z,99256.45
2019-03-30T22:36:45.056Z,99255.40
2019-03-30T22:39:15.950Z,99251.31
2019-03-30T22:41:46.732Z,99247.91
2019-03-30T22:44:17.587Z,99242.09
2019-03-30T22:46:48.374Z,99233.41
2019-03-30T22:49:19.160Z,99238.76
2019-03-30T22:51:49.923Z,99236.91
2019-03-30T22:54:21.037Z,99233.16
2019-03-30T22:56:51.840Z,99233.16
2019-03-30T22:59:22.620Z,99231.83
2019-03-30T23:01:53.394Z,99223.65
2019-03-30T23:04:24.247Z,99232.41
2019-03-30T23:06:55.032Z,99232.20
2019-03-30T23:09:26.088Z,99230.60
2019-03-30T23:11:56.858Z,99230.06
2019-03-30T23:14:27.875Z,99228.17
2019-03-30T23:16:58.611Z,99228.68
2019-03-30T23:19:31.671Z,99225.79
2019-03-30T23:22:02.412Z,99228.69
2019-03-30T23:24:33.339Z,99229.77
2019-03-30T23:27:04.296Z,99232.14
2019-03-30T23:29:35.069Z,99226.00
2019-03-30T23:32:05.922Z,99227.88
2019-03-30T23:34:36.845Z,99224.48
2019-03-30T23:37:07.639Z,99227.94
2019-03-30T23:39:38.512Z,99228.96
2019-03-30T23:42:09.352Z,99221.81
2019-03-30T23:44:40.187Z,99217.11
2019-03-30T23:47:13.087Z,99220.27
2019-03-30T23:49:43.859Z,99218.95
2019-03-30T23:52:16.687Z,99214.47
2019-03-30T23:54:48.756Z,99212.34
2019-03-30T23:57:19.571Z,99216.31
2019-03-30T23:59:50.367Z,99216.61
